sensor_id;sensor_type;location;lat;lon;timestamp;temperature;humidity
29453;DHT22;16424;50.956;5.320;2023-09-18T00:00:46;21.10;99.90
29453;DHT22;16424;50.956;5.320;2023-09-18T00:03:16;21.00;99.90
29453;DHT22;16424;50.956;5.320;2023-09-18T00:05:43;20.90;99.90
29453;DHT22;16424;50.956;5.320;2023-09-18T00:08:09;20.80;99.90
29453;DHT22;16424;50.956;5.320;2023-09-18T00:10:35;20.80;99.90
29453;DHT22;16424;50.956;5.320;2023-09-18T00:13:00;20.70;99.90
29453;DHT22;16424;50.956;5.320;2023-09-18T00:15:26;20.70;99.90
29453;DHT22;16424;50.956;5.320;2023-09-18T00:17:52;20.70;99.90
29453;DHT22;16424;50.956;5.320;2023-09-18T00:20:18;20.60;99.90
29453;DHT22;16424;50.956;5.320;2023-09-18T00:22:44;20.60;99.90
29453;DHT22;16424;50.956;5.320;2023-09-18T00:25:10;20.70;99.90
29453;DHT22;16424;50.956;5.320;2023-09-18T00:27:35;20.70;99.90
29453;DHT22;16424;50.956;5.320;2023-09-18T00:30:04;20.70;99.90
29453;DHT22;16424;50.956;5.320;2023-09-18T00:32:31;20.80;99.90
29453;DHT22;16424;50.956;5.320;2023-09-18T00:34:57;20.80;99.90
29453;DHT22;16424;50.956;5.320;2023-09-18T00:37:23;20.90;99.90
29453;DHT22;16424;50.956;5.320;2023-09-18T00:39:49;21.00;99.90
29453;DHT22;16424;50.956;5.320;2023-09-18T00:42:15;21.10;99.90
29453;DHT22;16424;50.956;5.320;2023-09-18T00:44:45;21.10;99.90
29453;DHT22;16424;50.956;5.320;2023-09-18T00:47:12;21.10;99.90
29453;DHT22;16424;50.956;5.320;2023-09-18T00:49:40;21.00;99.90
29453;DHT22;16424;50.956;5.320;2023-09-18T00:52:07;21.10;99.90
29453;DHT22;16424;50.956;5.320;2023-09-18T00:54:35;21.10;99.90
29453;DHT22;16424;50.956;5.320;2023-09-18T00:57:01;21.10;99.90
29453;DHT22;16424;50.956;5.320;2023-09-18T00:59:28;21.00;99.90
29453;DHT22;16424;50.956;5.320;2023-09-18T01:01:54;20.90;99.90
29453;DHT22;16424;50.956;5.320;2023-09-18T01:04:19;20.70;99.90
29453;DHT22;16424;50.956;5.320;2023-09-18T01:06:46;20.70;99.90
29453;DHT22;16424;50.956;5.320;2023-09-18T01:09:12;20.80;99.90
29453;DHT22;16424;50.956;5.320;2023-09-18T01:14:32;20.90;99.90
29453;DHT22;16424;50.956;5.320;2023-09-18T01:17:00;20.90;99.90
29453;DHT22;16424;50.956;5.320;2023-09-18T01:19:45;20.90;99.90
29453;DHT22;16424;50.956;5.320;2023-09-18T01:22:16;21.00;99.90
29453;DHT22;16424;50.956;5.320;2023-09-18T01:24:44;21.00;99.90
29453;DHT22;16424;50.956;5.320;2023-09-18T01:27:15;21.00;99.90
29453;DHT22;16424;50.956;5.320;2023-09-18T01:29:46;21.10;99.90
29453;DHT22;16424;50.956;5.320;2023-09-18T01:32:13;21.00;99.90
29453;DHT22;16424;50.956;5.320;2023-09-18T01:34:50;21.20;99.90
29453;DHT22;16424;50.956;5.320;2023-09-18T01:37:25;21.20;99.90
29453;DHT22;16424;50.956;5.320;2023-09-18T01:39:52;21.20;99.90
29453;DHT22;16424;50.956;5.320;2023-09-18T01:42:19;21.10;99.90
29453;DHT22;16424;50.956;5.320;2023-09-18T01:44:47;21.10;99.90
29453;DHT22;16424;50.956;5.320;2023-09-18T01:47:15;21.20;99.90
29453;DHT22;16424;50.956;5.320;2023-09-18T01:49:41;21.20;99.90
29453;DHT22;16424;50.956;5.320;2023-09-18T01:52:08;21.10;99.90
29453;DHT22;16424;50.956;5.320;2023-09-18T01:54:35;21.40;99.90
29453;DHT22;16424;50.956;5.320;2023-09-18T01:57:02;21.40;99.90
29453;DHT22;16424;50.956;5.320;2023-09-18T01:59:28;21.20;99.90
29453;DHT22;16424;50.956;5.320;2023-09-18T02:01:54;21.30;99.90
29453;DHT22;16424;50.956;5.320;2023-09-18T02:04:20;21.40;99.90
29453;DHT22;16424;50.956;5.320;2023-09-18T02:06:47;21.50;99.90
29453;DHT22;16424;50.956;5.320;2023-09-18T02:09:13;21.60;99.90
29453;DHT22;16424;50.956;5.320;2023-09-18T02:11:41;21.60;99.90
29453;DHT22;16424;50.956;5.320;2023-09-18T02:14:07;21.70;99.90
29453;DHT22;16424;50.956;5.320;2023-09-18T02:16:34;21.90;99.90
29453;DHT22;16424;50.956;5.320;2023-09-18T02:19:00;22.00;99.90
29453;DHT22;16424;50.956;5.320;2023-09-18T02:21:26;21.80;99.90
29453;DHT22;16424;50.956;5.320;2023-09-18T02:23:52;21.80;99.90
29453;DHT22;16424;50.956;5.320;2023-09-18T02:26:23;22.00;99.90
29453;DHT22;16424;50.956;5.320;2023-09-18T02:28:49;22.10;99.90
29453;DHT22;16424;50.956;5.320;2023-09-18T02:31:15;22.00;99.90
29453;DHT22;16424;50.956;5.320;2023-09-18T02:33:42;21.80;99.90
29453;DHT22;16424;50.956;5.320;2023-09-18T02:36:08;21.60;99.90
29453;DHT22;16424;50.956;5.320;2023-09-18T02:38:34;21.50;99.90
29453;DHT22;16424;50.956;5.320;2023-09-18T02:41:00;21.40;99.90
29453;DHT22;16424;50.956;5.320;2023-09-18T02:43:26;21.40;99.90
29453;DHT22;16424;50.956;5.320;2023-09-18T02:45:52;21.20;99.90
29453;DHT22;16424;50.956;5.320;2023-09-18T02:48:19;21.30;99.90
29453;DHT22;16424;50.956;5.320;2023-09-18T02:50:44;21.40;99.90
29453;DHT22;16424;50.956;5.320;2023-09-18T02:53:20;21.50;99.90
29453;DHT22;16424;50.956;5.320;2023-09-18T02:55:51;21.30;99.90
29453;DHT22;16424;50.956;5.320;2023-09-18T02:58:16;21.10;99.90
29453;DHT22;16424;50.956;5.320;2023-09-18T03:00:43;21.10;99.90
29453;DHT22;16424;50.956;5.320;2023-09-18T03:03:10;21.10;99.90
29453;DHT22;16424;50.956;5.320;2023-09-18T03:05:36;20.90;99.90
29453;DHT22;16424;50.956;5.320;2023-09-18T03:08:02;20.90;99.90
29453;DHT22;16424;50.956;5.320;2023-09-18T03:10:36;20.90;99.90
29453;DHT22;16424;50.956;5.320;2023-09-18T03:13:03;21.00;99.90
29453;DHT22;16424;50.956;5.320;2023-09-18T03:15:30;21.20;99.90
29453;DHT22;16424;50.956;5.320;2023-09-18T03:17:59;21.30;99.90
29453;DHT22;16424;50.956;5.320;2023-09-18T03:20:26;21.50;99.90
29453;DHT22;16424;50.956;5.320;2023-09-18T03:22:55;21.40;99.90
29453;DHT22;16424;50.956;5.320;2023-09-18T03:25:21;21.30;99.90
29453;DHT22;16424;50.956;5.320;2023-09-18T03:27:52;21.20;99.90
29453;DHT22;16424;50.956;5.320;2023-09-18T03:30:19;21.00;99.90
29453;DHT22;16424;50.956;5.320;2023-09-18T03:32:45;21.00;99.90
29453;DHT22;16424;50.956;5.320;2023-09-18T03:35:13;21.10;99.90
29453;DHT22;16424;50.956;5.320;2023-09-18T03:37:46;21.20;99.90
29453;DHT22;16424;50.956;5.320;2023-09-18T03:40:13;21.10;99.90
29453;DHT22;16424;50.956;5.320;2023-09-18T03:42:39;21.20;99.90
29453;DHT22;16424;50.956;5.320;2023-09-18T03:45:06;21.00;99.90
29453;DHT22;16424;50.956;5.320;2023-09-18T03:47:34;21.00;99.90
29453;DHT22;16424;50.956;5.320;2023-09-18T03:50:04;20.70;99.90
29453;DHT22;16424;50.956;5.320;2023-09-18T03:52:30;20.80;99.90
29453;DHT22;16424;50.956;5.320;2023-09-18T03:54:55;20.80;99.90
29453;DHT22;16424;50.956;5.320;2023-09-18T03:57:21;20.80;99.90
29453;DHT22;16424;50.956;5.320;2023-09-18T03:59:47;20.80;99.90
29453;DHT22;16424;50.956;5.320;2023-09-18T04:02:12;20.90;99.90
29453;DHT22;16424;50.956;5.320;2023-09-18T04:04:38;20.90;99.90
29453;DHT22;16424;50.956;5.320;2023-09-18T04:07:07;20.90;99.90
29453;DHT22;16424;50.956;5.320;2023-09-18T04:09:33;20.90;99.90
29453;DHT22;16424;50.956;5.320;2023-09-18T04:12:02;20.90;99.90
29453;DHT22;16424;50.956;5.320;2023-09-18T04:14:28;20.90;99.90
29453;DHT22;16424;50.956;5.320;2023-09-18T04:16:53;21.00;99.90
29453;DHT22;16424;50.956;5.320;2023-09-18T04:19:19;21.00;99.90
29453;DHT22;16424;50.956;5.320;2023-09-18T04:21:45;21.00;99.90
29453;DHT22;16424;50.956;5.320;2023-09-18T04:24:10;21.00;99.90
29453;DHT22;16424;50.956;5.320;2023-09-18T04:26:36;21.00;99.90
29453;DHT22;16424;50.956;5.320;2023-09-18T04:29:03;21.00;99.90
29453;DHT22;16424;50.956;5.320;2023-09-18T04:31:29;21.10;99.90
29453;DHT22;16424;50.956;5.320;2023-09-18T04:33:55;21.00;99.90
29453;DHT22;16424;50.956;5.320;2023-09-18T04:36:21;21.00;99.90
29453;DHT22;16424;50.956;5.320;2023-09-18T04:38:47;20.80;99.90
29453;DHT22;16424;50.956;5.320;2023-09-18T04:41:14;20.80;99.90
29453;DHT22;16424;50.956;5.320;2023-09-18T04:43:40;20.70;99.90
29453;DHT22;16424;50.956;5.320;2023-09-18T04:46:06;20.70;99.90
29453;DHT22;16424;50.956;5.320;2023-09-18T04:48:32;20.60;99.90
29453;DHT22;16424;50.956;5.320;2023-09-18T04:50:59;20.60;99.90
29453;DHT22;16424;50.956;5.320;2023-09-18T04:53:25;20.60;99.90
29453;DHT22;16424;50.956;5.320;2023-09-18T04:55:51;20.60;99.90
29453;DHT22;16424;50.956;5.320;2023-09-18T04:58:17;20.70;99.90
29453;DHT22;16424;50.956;5.320;2023-09-18T05:00:43;20.70;99.90
29453;DHT22;16424;50.956;5.320;2023-09-18T05:03:09;20.70;99.90
29453;DHT22;16424;50.956;5.320;2023-09-18T05:05:36;20.70;99.90
29453;DHT22;16424;50.956;5.320;2023-09-18T05:08:04;20.60;99.90
29453;DHT22;16424;50.956;5.320;2023-09-18T05:10:33;20.70;99.90
29453;DHT22;16424;50.956;5.320;2023-09-18T05:12:59;20.70;99.90
29453;DHT22;16424;50.956;5.320;2023-09-18T05:15:25;20.60;99.90
29453;DHT22;16424;50.956;5.320;2023-09-18T05:17:58;20.50;99.90
29453;DHT22;16424;50.956;5.320;2023-09-18T05:20:28;20.50;99.90
29453;DHT22;16424;50.956;5.320;2023-09-18T05:22:55;20.50;99.90
29453;DHT22;16424;50.956;5.320;2023-09-18T05:25:29;20.60;99.90
29453;DHT22;16424;50.956;5.320;2023-09-18T05:27:57;20.50;99.90
29453;DHT22;16424;50.956;5.320;2023-09-18T05:30:35;20.40;99.90
29453;DHT22;16424;50.956;5.320;2023-09-18T05:33:05;20.40;99.90
29453;DHT22;16424;50.956;5.320;2023-09-18T05:35:41;20.20;99.90
29453;DHT22;16424;50.956;5.320;2023-09-18T05:38:08;20.30;99.90
29453;DHT22;16424;50.956;5.320;2023-09-18T05:40:35;20.30;99.90
29453;DHT22;16424;50.956;5.320;2023-09-18T05:43:00;20.30;99.90
29453;DHT22;16424;50.956;5.320;2023-09-18T05:45:27;20.30;99.90
29453;DHT22;16424;50.956;5.320;2023-09-18T05:47:53;20.30;99.90
29453;DHT22;16424;50.956;5.320;2023-09-18T05:50:31;20.20;99.90
29453;DHT22;16424;50.956;5.320;2023-09-18T05:52:58;20.20;99.90
29453;DHT22;16424;50.956;5.320;2023-09-18T05:55:38;20.30;99.90
29453;DHT22;16424;50.956;5.320;2023-09-18T05:58:04;20.30;99.90
29453;DHT22;16424;50.956;5.320;2023-09-18T06:00:32;20.30;99.90
29453;DHT22;16424;50.956;5.320;2023-09-18T06:02:58;20.40;99.90
29453;DHT22;16424;50.956;5.320;2023-09-18T06:05:24;20.20;99.90
29453;DHT22;16424;50.956;5.320;2023-09-18T06:07:51;20.20;99.90
29453;DHT22;16424;50.956;5.320;2023-09-18T06:10:17;20.40;99.90
29453;DHT22;16424;50.956;5.320;2023-09-18T06:12:44;20.40;99.90
29453;DHT22;16424;50.956;5.320;2023-09-18T06:15:10;20.40;99.90
29453;DHT22;16424;50.956;5.320;2023-09-18T06:17:41;20.40;99.90
29453;DHT22;16424;50.956;5.320;2023-09-18T06:20:08;20.40;99.90
29453;DHT22;16424;50.956;5.320;2023-09-18T06:22:41;20.40;99.90
29453;DHT22;16424;50.956;5.320;2023-09-18T06:25:08;20.40;99.90
29453;DHT22;16424;50.956;5.320;2023-09-18T06:27:36;20.40;99.90
29453;DHT22;16424;50.956;5.320;2023-09-18T06:30:03;20.40;99.90
29453;DHT22;16424;50.956;5.320;2023-09-18T06:32:29;20.50;99.90
29453;DHT22;16424;50.956;5.320;2023-09-18T06:34:55;20.30;99.90
29453;DHT22;16424;50.956;5.320;2023-09-18T06:37:23;20.30;99.90
29453;DHT22;16424;50.956;5.320;2023-09-18T06:39:48;20.40;99.90
29453;DHT22;16424;50.956;5.320;2023-09-18T06:42:14;20.50;99.90
29453;DHT22;16424;50.956;5.320;2023-09-18T06:44:40;20.40;99.90
29453;DHT22;16424;50.956;5.320;2023-09-18T06:47:06;20.60;99.90
29453;DHT22;16424;50.956;5.320;2023-09-18T06:49:32;20.60;99.90
29453;DHT22;16424;50.956;5.320;2023-09-18T06:51:58;20.70;99.90
29453;DHT22;16424;50.956;5.320;2023-09-18T06:54:24;20.90;99.90
29453;DHT22;16424;50.956;5.320;2023-09-18T06:56:49;20.80;99.90
29453;DHT22;16424;50.956;5.320;2023-09-18T06:59:15;20.70;99.90
29453;DHT22;16424;50.956;5.320;2023-09-18T07:01:41;20.70;99.90
29453;DHT22;16424;50.956;5.320;2023-09-18T07:04:08;20.80;99.90
29453;DHT22;16424;50.956;5.320;2023-09-18T07:06:34;20.80;99.90
29453;DHT22;16424;50.956;5.320;2023-09-18T07:08:59;20.70;99.90
29453;DHT22;16424;50.956;5.320;2023-09-18T07:11:25;20.50;99.90
29453;DHT22;16424;50.956;5.320;2023-09-18T07:13:51;20.50;99.90
29453;DHT22;16424;50.956;5.320;2023-09-18T07:16:16;20.50;99.90
29453;DHT22;16424;50.956;5.320;2023-09-18T07:18:42;20.40;99.90
29453;DHT22;16424;50.956;5.320;2023-09-18T07:21:08;20.60;99.90
29453;DHT22;16424;50.956;5.320;2023-09-18T07:23:34;20.70;99.90
29453;DHT22;16424;50.956;5.320;2023-09-18T07:26:02;20.60;99.90
29453;DHT22;16424;50.956;5.320;2023-09-18T07:28:28;20.60;99.90
29453;DHT22;16424;50.956;5.320;2023-09-18T07:30:54;20.60;99.90
29453;DHT22;16424;50.956;5.320;2023-09-18T07:33:20;20.60;99.90
29453;DHT22;16424;50.956;5.320;2023-09-18T07:35:49;20.80;99.90
29453;DHT22;16424;50.956;5.320;2023-09-18T07:38:17;20.90;99.90
29453;DHT22;16424;50.956;5.320;2023-09-18T07:40:44;20.80;99.90
29453;DHT22;16424;50.956;5.320;2023-09-18T07:43:11;20.90;99.90
29453;DHT22;16424;50.956;5.320;2023-09-18T07:45:39;20.70;99.90
29453;DHT22;16424;50.956;5.320;2023-09-18T07:48:06;20.60;99.90
29453;DHT22;16424;50.956;5.320;2023-09-18T07:50:33;20.60;99.90
29453;DHT22;16424;50.956;5.320;2023-09-18T07:52:59;20.60;99.90
29453;DHT22;16424;50.956;5.320;2023-09-18T07:55:25;20.80;99.90
29453;DHT22;16424;50.956;5.320;2023-09-18T07:57:51;20.80;99.90
29453;DHT22;16424;50.956;5.320;2023-09-18T08:00:17;20.90;99.90
29453;DHT22;16424;50.956;5.320;2023-09-18T08:02:44;21.10;99.90
29453;DHT22;16424;50.956;5.320;2023-09-18T08:05:10;21.10;99.90
29453;DHT22;16424;50.956;5.320;2023-09-18T08:07:36;21.20;99.90
29453;DHT22;16424;50.956;5.320;2023-09-18T08:10:03;21.70;99.90
29453;DHT22;16424;50.956;5.320;2023-09-18T08:12:34;22.00;99.90
29453;DHT22;16424;50.956;5.320;2023-09-18T08:14:59;22.40;99.90
29453;DHT22;16424;50.956;5.320;2023-09-18T08:17:25;22.30;99.90
29453;DHT22;16424;50.956;5.320;2023-09-18T08:19:52;22.00;99.90
29453;DHT22;16424;50.956;5.320;2023-09-18T08:22:18;21.80;99.90
29453;DHT22;16424;50.956;5.320;2023-09-18T08:24:46;21.90;99.90
29453;DHT22;16424;50.956;5.320;2023-09-18T08:27:14;21.90;99.90
29453;DHT22;16424;50.956;5.320;2023-09-18T08:29:42;21.80;99.90
29453;DHT22;16424;50.956;5.320;2023-09-18T08:32:09;22.20;99.90
29453;DHT22;16424;50.956;5.320;2023-09-18T08:34:34;22.60;99.90
29453;DHT22;16424;50.956;5.320;2023-09-18T08:37:02;22.90;99.90
29453;DHT22;16424;50.956;5.320;2023-09-18T08:39:27;22.90;99.90
29453;DHT22;16424;50.956;5.320;2023-09-18T08:41:59;22.80;99.90
29453;DHT22;16424;50.956;5.320;2023-09-18T08:44:27;22.30;99.90
29453;DHT22;16424;50.956;5.320;2023-09-18T08:46:54;22.90;99.90
29453;DHT22;16424;50.956;5.320;2023-09-18T08:49:23;23.70;99.90
29453;DHT22;16424;50.956;5.320;2023-09-18T08:51:53;24.50;99.90
29453;DHT22;16424;50.956;5.320;2023-09-18T08:54:23;24.60;99.90
29453;DHT22;16424;50.956;5.320;2023-09-18T08:56:51;25.10;99.90
29453;DHT22;16424;50.956;5.320;2023-09-18T08:59:17;25.50;99.90
29453;DHT22;16424;50.956;5.320;2023-09-18T09:01:45;25.60;99.90
29453;DHT22;16424;50.956;5.320;2023-09-18T09:04:10;24.90;99.90
29453;DHT22;16424;50.956;5.320;2023-09-18T09:06:37;24.70;99.90
29453;DHT22;16424;50.956;5.320;2023-09-18T09:09:03;24.60;99.90
29453;DHT22;16424;50.956;5.320;2023-09-18T09:11:28;24.80;99.90
29453;DHT22;16424;50.956;5.320;2023-09-18T09:14:12;24.30;99.90
29453;DHT22;16424;50.956;5.320;2023-09-18T09:16:47;24.20;99.90
29453;DHT22;16424;50.956;5.320;2023-09-18T09:19:15;24.80;99.90
29453;DHT22;16424;50.956;5.320;2023-09-18T09:21:42;25.10;99.90
29453;DHT22;16424;50.956;5.320;2023-09-18T09:24:12;24.70;99.90
29453;DHT22;16424;50.956;5.320;2023-09-18T09:26:41;24.50;99.90
29453;DHT22;16424;50.956;5.320;2023-09-18T09:29:18;25.00;99.90
29453;DHT22;16424;50.956;5.320;2023-09-18T09:31:46;25.70;99.90
29453;DHT22;16424;50.956;5.320;2023-09-18T09:34:12;25.80;99.90
29453;DHT22;16424;50.956;5.320;2023-09-18T09:36:53;24.70;99.90
29453;DHT22;16424;50.956;5.320;2023-09-18T09:39:20;24.70;99.90
29453;DHT22;16424;50.956;5.320;2023-09-18T09:41:48;24.50;99.90
29453;DHT22;16424;50.956;5.320;2023-09-18T09:44:15;24.30;99.90
29453;DHT22;16424;50.956;5.320;2023-09-18T09:46:50;24.20;99.90
29453;DHT22;16424;50.956;5.320;2023-09-18T09:49:17;24.30;99.90
29453;DHT22;16424;50.956;5.320;2023-09-18T09:51:45;24.50;99.90
29453;DHT22;16424;50.956;5.320;2023-09-18T09:54:11;24.50;99.90
29453;DHT22;16424;50.956;5.320;2023-09-18T09:56:49;24.70;99.90
29453;DHT22;16424;50.956;5.320;2023-09-18T09:59:19;24.30;99.90
29453;DHT22;16424;50.956;5.320;2023-09-18T10:01:48;24.00;99.90
29453;DHT22;16424;50.956;5.320;2023-09-18T10:04:18;23.90;99.90
29453;DHT22;16424;50.956;5.320;2023-09-18T10:06:51;23.90;99.90
29453;DHT22;16424;50.956;5.320;2023-09-18T10:09:19;23.60;99.90
29453;DHT22;16424;50.956;5.320;2023-09-18T10:11:51;23.60;99.90
29453;DHT22;16424;50.956;5.320;2023-09-18T10:14:30;23.60;99.90
29453;DHT22;16424;50.956;5.320;2023-09-18T10:16:59;23.50;99.90
29453;DHT22;16424;50.956;5.320;2023-09-18T10:19:49;23.50;99.90
29453;DHT22;16424;50.956;5.320;2023-09-18T10:24:57;23.00;99.90
29453;DHT22;16424;50.956;5.320;2023-09-18T10:27:26;23.10;99.90
29453;DHT22;16424;50.956;5.320;2023-09-18T10:29:54;23.50;99.90
29453;DHT22;16424;50.956;5.320;2023-09-18T10:32:21;24.00;99.90
29453;DHT22;16424;50.956;5.320;2023-09-18T10:34:48;24.20;99.90
29453;DHT22;16424;50.956;5.320;2023-09-18T10:37:15;24.30;99.90
29453;DHT22;16424;50.956;5.320;2023-09-18T10:39:41;24.50;99.90
29453;DHT22;16424;50.956;5.320;2023-09-18T10:42:09;24.20;99.90
29453;DHT22;16424;50.956;5.320;2023-09-18T10:44:36;24.20;99.90
29453;DHT22;16424;50.956;5.320;2023-09-18T10:47:03;24.30;99.90
29453;DHT22;16424;50.956;5.320;2023-09-18T10:49:34;24.50;99.90
29453;DHT22;16424;50.956;5.320;2023-09-18T10:52:00;24.30;99.90
29453;DHT22;16424;50.956;5.320;2023-09-18T10:54:27;24.20;99.90
29453;DHT22;16424;50.956;5.320;2023-09-18T10:56:56;23.90;99.90
29453;DHT22;16424;50.956;5.320;2023-09-18T10:59:22;24.00;99.90
29453;DHT22;16424;50.956;5.320;2023-09-18T11:01:48;24.10;99.90
29453;DHT22;16424;50.956;5.320;2023-09-18T11:04:18;24.30;99.90
29453;DHT22;16424;50.956;5.320;2023-09-18T11:09:25;24.60;99.90
29453;DHT22;16424;50.956;5.320;2023-09-18T11:14:56;24.60;99.90
29453;DHT22;16424;50.956;5.320;2023-09-18T11:20:11;24.00;99.90
29453;DHT22;16424;50.956;5.320;2023-09-18T11:22:49;23.90;99.90
29453;DHT22;16424;50.956;5.320;2023-09-18T11:25:36;24.20;99.90
29453;DHT22;16424;50.956;5.320;2023-09-18T11:28:07;24.10;99.90
29453;DHT22;16424;50.956;5.320;2023-09-18T11:30:37;24.20;99.90
29453;DHT22;16424;50.956;5.320;2023-09-18T11:33:05;24.30;99.90
29453;DHT22;16424;50.956;5.320;2023-09-18T11:35:32;24.50;99.90
29453;DHT22;16424;50.956;5.320;2023-09-18T11:38:09;24.40;99.90
29453;DHT22;16424;50.956;5.320;2023-09-18T11:40:37;24.40;99.90
29453;DHT22;16424;50.956;5.320;2023-09-18T11:43:26;24.00;99.90
29453;DHT22;16424;50.956;5.320;2023-09-18T11:45:54;23.80;99.90
29453;DHT22;16424;50.956;5.320;2023-09-18T11:48:54;23.80;99.90
29453;DHT22;16424;50.956;5.320;2023-09-18T11:51:22;24.00;99.90
29453;DHT22;16424;50.956;5.320;2023-09-18T11:53:51;24.20;99.90
29453;DHT22;16424;50.956;5.320;2023-09-18T11:56:19;24.30;99.90
29453;DHT22;16424;50.956;5.320;2023-09-18T11:58:50;24.30;99.90
29453;DHT22;16424;50.956;5.320;2023-09-18T12:01:18;24.40;99.90
29453;DHT22;16424;50.956;5.320;2023-09-18T12:03:44;24.50;99.90
29453;DHT22;16424;50.956;5.320;2023-09-18T12:06:11;24.70;99.90
29453;DHT22;16424;50.956;5.320;2023-09-18T12:08:39;24.50;99.90
29453;DHT22;16424;50.956;5.320;2023-09-18T12:11:07;24.60;99.90
29453;DHT22;16424;50.956;5.320;2023-09-18T12:13:32;24.60;99.90
29453;DHT22;16424;50.956;5.320;2023-09-18T12:15:59;24.70;99.90
29453;DHT22;16424;50.956;5.320;2023-09-18T12:18:27;25.00;99.90
29453;DHT22;16424;50.956;5.320;2023-09-18T12:20:54;25.20;99.90
29453;DHT22;16424;50.956;5.320;2023-09-18T12:23:21;25.20;99.90
29453;DHT22;16424;50.956;5.320;2023-09-18T12:25:50;25.20;99.90
29453;DHT22;16424;50.956;5.320;2023-09-18T12:28:18;25.20;99.90
29453;DHT22;16424;50.956;5.320;2023-09-18T12:30:44;25.10;99.90
29453;DHT22;16424;50.956;5.320;2023-09-18T12:33:12;25.10;99.90
29453;DHT22;16424;50.956;5.320;2023-09-18T12:35:40;25.30;99.90
29453;DHT22;16424;50.956;5.320;2023-09-18T12:38:17;25.30;99.90
29453;DHT22;16424;50.956;5.320;2023-09-18T12:40:50;25.10;99.90
29453;DHT22;16424;50.956;5.320;2023-09-18T12:43:16;25.20;99.90
29453;DHT22;16424;50.956;5.320;2023-09-18T12:45:45;25.30;99.90
29453;DHT22;16424;50.956;5.320;2023-09-18T12:48:13;25.40;99.90
29453;DHT22;16424;50.956;5.320;2023-09-18T12:50:39;25.20;99.90
29453;DHT22;16424;50.956;5.320;2023-09-18T12:53:11;25.00;99.90
29453;DHT22;16424;50.956;5.320;2023-09-18T12:55:38;24.80;99.90
29453;DHT22;16424;50.956;5.320;2023-09-18T12:58:04;24.60;99.90
29453;DHT22;16424;50.956;5.320;2023-09-18T13:00:34;24.60;99.90
29453;DHT22;16424;50.956;5.320;2023-09-18T13:03:00;25.00;99.90
29453;DHT22;16424;50.956;5.320;2023-09-18T13:05:25;25.00;99.90
29453;DHT22;16424;50.956;5.320;2023-09-18T13:07:52;24.90;99.90
29453;DHT22;16424;50.956;5.320;2023-09-18T13:10:18;25.20;99.90
29453;DHT22;16424;50.956;5.320;2023-09-18T13:12:48;25.40;99.90
29453;DHT22;16424;50.956;5.320;2023-09-18T13:15:28;25.60;99.90
29453;DHT22;16424;50.956;5.320;2023-09-18T13:17:55;25.50;99.90
29453;DHT22;16424;50.956;5.320;2023-09-18T13:20:24;25.50;99.90
29453;DHT22;16424;50.956;5.320;2023-09-18T13:22:55;25.30;99.90
29453;DHT22;16424;50.956;5.320;2023-09-18T13:25:27;25.30;99.90
29453;DHT22;16424;50.956;5.320;2023-09-18T13:27:53;25.40;99.90
29453;DHT22;16424;50.956;5.320;2023-09-18T13:30:20;25.40;99.90
29453;DHT22;16424;50.956;5.320;2023-09-18T13:32:48;25.30;99.90
29453;DHT22;16424;50.956;5.320;2023-09-18T13:35:16;25.30;99.90
29453;DHT22;16424;50.956;5.320;2023-09-18T13:37:42;25.60;99.90
29453;DHT22;16424;50.956;5.320;2023-09-18T13:40:09;25.70;99.90
29453;DHT22;16424;50.956;5.320;2023-09-18T13:42:36;25.50;99.90
29453;DHT22;16424;50.956;5.320;2023-09-18T13:45:03;25.50;99.90
29453;DHT22;16424;50.956;5.320;2023-09-18T13:47:30;25.50;99.90
29453;DHT22;16424;50.956;5.320;2023-09-18T13:49:56;25.70;99.90
29453;DHT22;16424;50.956;5.320;2023-09-18T13:52:32;25.80;99.90
29453;DHT22;16424;50.956;5.320;2023-09-18T13:54:59;25.80;99.90
29453;DHT22;16424;50.956;5.320;2023-09-18T13:57:25;25.30;99.90
29453;DHT22;16424;50.956;5.320;2023-09-18T13:59:51;25.30;99.90
29453;DHT22;16424;50.956;5.320;2023-09-18T14:02:18;25.30;99.90
29453;DHT22;16424;50.956;5.320;2023-09-18T14:04:44;25.40;99.90
29453;DHT22;16424;50.956;5.320;2023-09-18T14:07:11;25.60;99.90
29453;DHT22;16424;50.956;5.320;2023-09-18T14:09:38;25.60;99.90
29453;DHT22;16424;50.956;5.320;2023-09-18T14:12:04;25.60;99.90
29453;DHT22;16424;50.956;5.320;2023-09-18T14:14:33;25.50;99.90
29453;DHT22;16424;50.956;5.320;2023-09-18T14:16:58;25.40;99.90
29453;DHT22;16424;50.956;5.320;2023-09-18T14:19:24;25.30;99.90
29453;DHT22;16424;50.956;5.320;2023-09-18T14:21:51;25.30;99.90
29453;DHT22;16424;50.956;5.320;2023-09-18T14:24:18;25.40;99.90
29453;DHT22;16424;50.956;5.320;2023-09-18T14:26:48;25.60;99.90
29453;DHT22;16424;50.956;5.320;2023-09-18T14:29:14;25.50;99.90
29453;DHT22;16424;50.956;5.320;2023-09-18T14:31:40;25.20;99.90
29453;DHT22;16424;50.956;5.320;2023-09-18T14:34:06;25.50;99.90
29453;DHT22;16424;50.956;5.320;2023-09-18T14:36:32;25.60;99.90
29453;DHT22;16424;50.956;5.320;2023-09-18T14:39:01;25.70;99.90
29453;DHT22;16424;50.956;5.320;2023-09-18T14:41:27;25.30;99.90
29453;DHT22;16424;50.956;5.320;2023-09-18T14:43:53;25.40;99.90
29453;DHT22;16424;50.956;5.320;2023-09-18T14:46:19;25.30;99.90
29453;DHT22;16424;50.956;5.320;2023-09-18T14:48:46;25.60;99.90
29453;DHT22;16424;50.956;5.320;2023-09-18T14:51:12;25.80;99.90
29453;DHT22;16424;50.956;5.320;2023-09-18T14:53:37;26.10;99.90
29453;DHT22;16424;50.956;5.320;2023-09-18T14:56:03;26.00;99.90
29453;DHT22;16424;50.956;5.320;2023-09-18T14:58:30;25.70;99.90
29453;DHT22;16424;50.956;5.320;2023-09-18T15:00:57;25.30;99.90
29453;DHT22;16424;50.956;5.320;2023-09-18T15:03:23;25.20;99.90
29453;DHT22;16424;50.956;5.320;2023-09-18T15:05:52;25.30;99.90
29453;DHT22;16424;50.956;5.320;2023-09-18T15:08:19;25.30;99.90
29453;DHT22;16424;50.956;5.320;2023-09-18T15:10:48;25.20;99.90
29453;DHT22;16424;50.956;5.320;2023-09-18T15:13:14;25.20;99.90
29453;DHT22;16424;50.956;5.320;2023-09-18T15:15:40;25.20;99.90
29453;DHT22;16424;50.956;5.320;2023-09-18T15:18:06;25.00;99.90
29453;DHT22;16424;50.956;5.320;2023-09-18T15:20:32;24.70;99.90
29453;DHT22;16424;50.956;5.320;2023-09-18T15:22:58;24.60;99.90
29453;DHT22;16424;50.956;5.320;2023-09-18T15:25:23;24.60;99.90
29453;DHT22;16424;50.956;5.320;2023-09-18T15:27:49;24.70;99.90
29453;DHT22;16424;50.956;5.320;2023-09-18T15:30:15;24.80;99.90
29453;DHT22;16424;50.956;5.320;2023-09-18T15:32:52;24.80;99.90
29453;DHT22;16424;50.956;5.320;2023-09-18T15:35:22;24.90;99.90
29453;DHT22;16424;50.956;5.320;2023-09-18T15:37:48;24.90;99.90
29453;DHT22;16424;50.956;5.320;2023-09-18T15:40:14;24.90;99.90
29453;DHT22;16424;50.956;5.320;2023-09-18T15:42:42;24.90;99.90
29453;DHT22;16424;50.956;5.320;2023-09-18T15:45:09;24.70;99.90
29453;DHT22;16424;50.956;5.320;2023-09-18T15:47:42;24.70;99.90